createdAt,value
2022-12-03T00:01:40.595Z,24.99
2022-12-03T00:04:06.904Z,25.91
2022-12-03T00:06:34.848Z,25.66
2022-12-03T00:09:01.268Z,24.66
2022-12-03T00:11:27.575Z,25.25
2022-12-03T00:13:53.879Z,26.46
2022-12-03T00:16:20.229Z,25.46
2022-12-03T00:18:46.560Z,25.84
2022-12-03T00:21:12.854Z,25.75
2022-12-03T00:23:42.265Z,25.29
2022-12-03T00:26:08.842Z,25.15
2022-12-03T00:28:35.151Z,25.73
2022-12-03T00:31:01.518Z,26.87
2022-12-03T00:33:27.841Z,26.26
2022-12-03T00:35:54.114Z,26.30
2022-12-03T00:38:20.369Z,26.04
2022-12-03T00:40:46.634Z,25.84
2022-12-03T00:43:12.883Z,26.30
2022-12-03T00:45:39.167Z,26.37
2022-12-03T00:48:05.441Z,26.38
2022-12-03T00:50:31.719Z,26.48
2022-12-03T00:52:57.992Z,26.17
2022-12-03T00:55:24.266Z,26.56
2022-12-03T00:57:50.518Z,26.02
2022-12-03T01:00:16.783Z,25.99
2022-12-03T01:02:43.035Z,26.02
2022-12-03T01:05:09.342Z,26.73
2022-12-03T01:07:35.788Z,26.21
2022-12-03T01:10:02.045Z,25.71
2022-12-03T01:12:28.322Z,26.08
2022-12-03T01:14:54.809Z,25.85
2022-12-03T01:17:21.314Z,26.20
2022-12-03T01:19:48.535Z,26.30
2022-12-03T01:22:15.024Z,25.97
2022-12-03T01:24:41.318Z,26.05
2022-12-03T01:27:07.641Z,25.73
2022-12-03T01:29:33.929Z,26.08
2022-12-03T01:32:00.212Z,25.75
2022-12-03T01:34:26.493Z,25.83
2022-12-03T01:36:52.792Z,25.02
2022-12-03T01:39:19.084Z,26.07
2022-12-03T01:41:45.335Z,26.14
2022-12-03T01:44:11.763Z,25.17
2022-12-03T01:46:38.145Z,25.30
2022-12-03T01:49:04.428Z,25.31
2022-12-03T01:51:30.725Z,25.80
2022-12-03T01:53:56.974Z,25.44
2022-12-03T01:56:23.232Z,25.71
2022-12-03T01:58:49.511Z,25.92
2022-12-03T02:01:15.839Z,24.99
2022-12-03T02:03:42.188Z,25.46
2022-12-03T02:06:08.553Z,26.11
2022-12-03T02:08:34.825Z,25.93
2022-12-03T02:11:01.244Z,25.81
2022-12-03T02:13:27.538Z,25.15
2022-12-03T02:15:53.871Z,24.60
2022-12-03T02:18:20.253Z,24.90
2022-12-03T02:20:46.511Z,25.79
2022-12-03T02:23:12.777Z,24.59
2022-12-03T02:25:39.080Z,25.30
2022-12-03T02:28:05.324Z,25.59
2022-12-03T02:30:31.575Z,24.50
2022-12-03T02:32:57.865Z,25.66
2022-12-03T02:35:24.115Z,25.19
2022-12-03T02:37:50.388Z,24.93
2022-12-03T02:40:16.676Z,25.15
2022-12-03T02:42:42.952Z,24.85
2022-12-03T02:45:09.218Z,24.76
2022-12-03T02:47:35.522Z,24.50
2022-12-03T02:50:01.778Z,25.57
2022-12-03T02:52:28.030Z,26.50
2022-12-03T02:54:54.543Z,25.53
2022-12-03T02:57:21.046Z,26.19
2022-12-03T02:59:47.319Z,26.11
2022-12-03T03:02:13.689Z,26.80
2022-12-03T03:04:39.983Z,26.65
2022-12-03T03:07:06.243Z,27.45
2022-12-03T03:09:32.603Z,27.50
2022-12-03T03:11:58.885Z,26.68
2022-12-03T03:14:25.165Z,27.29
2022-12-03T03:16:51.507Z,26.41
2022-12-03T03:19:17.873Z,26.32
2022-12-03T03:21:44.166Z,26.36
2022-12-03T03:24:10.437Z,26.20
2022-12-03T03:26:36.709Z,25.78
2022-12-03T03:29:02.981Z,25.96
2022-12-03T03:31:29.295Z,27.03
2022-12-03T03:33:55.594Z,26.90
2022-12-03T03:36:21.866Z,26.46
2022-12-03T03:38:48.141Z,25.57
2022-12-03T03:41:14.435Z,25.99
2022-12-03T03:43:40.736Z,26.10
2022-12-03T03:46:07.045Z,25.55
2022-12-03T03:48:33.353Z,26.33
2022-12-03T03:50:59.598Z,24.76
2022-12-03T03:53:25.885Z,25.42
2022-12-03T03:55:52.145Z,25.25
2022-12-03T03:58:18.445Z,24.88
2022-12-03T04:00:44.784Z,25.89
2022-12-03T04:03:11.108Z,25.23
2022-12-03T04:05:37.355Z,25.51
2022-12-03T04:08:03.688Z,26.02
2022-12-03T04:10:30.018Z,24.81
2022-12-03T04:12:56.266Z,25.71
2022-12-03T04:15:22.629Z,25.71
2022-12-03T04:17:48.891Z,24.85
2022-12-03T04:20:15.152Z,25.53
2022-12-03T04:22:41.480Z,25.75
2022-12-03T04:25:07.730Z,25.92
2022-12-03T04:27:33.992Z,26.03
2022-12-03T04:30:00.255Z,26.78
2022-12-03T04:32:26.528Z,26.47
2022-12-03T04:34:53.059Z,25.81
2022-12-03T04:37:19.433Z,25.18
2022-12-03T04:39:45.685Z,25.30
2022-12-03T04:42:11.938Z,25.50
2022-12-03T04:44:38.207Z,25.47
2022-12-03T04:47:04.452Z,25.14
2022-12-03T04:49:30.737Z,24.84
2022-12-03T04:51:56.988Z,25.30
2022-12-03T04:54:23.251Z,24.76
2022-12-03T04:56:49.518Z,25.21
2022-12-03T04:59:16.485Z,25.56
2022-12-03T05:01:43.166Z,24.32
2022-12-03T05:04:09.467Z,24.84
2022-12-03T05:06:35.735Z,25.60
2022-12-03T05:09:02.021Z,25.15
2022-12-03T05:11:28.280Z,24.84
2022-12-03T05:13:54.552Z,24.65
2022-12-03T05:16:20.898Z,23.11
2022-12-03T05:18:47.200Z,23.07
2022-12-03T05:21:13.451Z,23.55
2022-12-03T05:23:39.727Z,23.27
2022-12-03T05:26:06.123Z,24.04
2022-12-03T05:28:32.399Z,23.26
2022-12-03T05:30:58.695Z,23.48
2022-12-03T05:33:25.007Z,22.73
2022-12-03T05:35:51.329Z,23.11
2022-12-03T05:38:17.586Z,24.08
2022-12-03T05:40:43.852Z,24.43
2022-12-03T05:43:10.122Z,23.45
2022-12-03T05:45:36.391Z,23.49
2022-12-03T05:48:02.672Z,23.01
2022-12-03T05:50:28.971Z,23.64
2022-12-03T05:52:55.270Z,23.45
2022-12-03T05:55:21.529Z,23.63
2022-12-03T05:57:47.804Z,23.57
2022-12-03T06:00:14.100Z,23.31
2022-12-03T06:02:40.448Z,23.53
2022-12-03T06:05:06.781Z,23.11
2022-12-03T06:07:33.081Z,23.10
2022-12-03T06:09:59.384Z,23.46
2022-12-03T06:12:25.629Z,23.08
2022-12-03T06:14:52.261Z,23.52
2022-12-03T06:17:18.689Z,23.00
2022-12-03T06:19:44.946Z,22.28
2022-12-03T06:22:11.244Z,22.31
2022-12-03T06:24:37.492Z,22.18
2022-12-03T06:27:03.780Z,22.02
2022-12-03T06:29:30.030Z,22.81
2022-12-03T06:31:56.304Z,22.14
2022-12-03T06:34:22.588Z,21.35
2022-12-03T06:36:48.851Z,21.09
2022-12-03T06:39:15.136Z,21.16
2022-12-03T06:41:41.395Z,22.31
2022-12-03T06:44:07.660Z,21.32
2022-12-03T06:46:33.993Z,21.42
2022-12-03T06:49:00.292Z,21.16
2022-12-03T06:51:26.551Z,22.42
2022-12-03T06:53:52.858Z,22.26
2022-12-03T06:56:22.281Z,22.08
2022-12-03T06:58:48.942Z,22.68
2022-12-03T07:01:15.252Z,22.10
2022-12-03T07:03:41.526Z,22.84
2022-12-03T07:06:07.780Z,22.37
2022-12-03T07:08:34.043Z,22.62
2022-12-03T07:11:00.302Z,22.93
2022-12-03T07:13:26.552Z,22.93
2022-12-03T07:15:52.867Z,22.70
2022-12-03T07:18:19.182Z,22.77
2022-12-03T07:20:45.454Z,22.30
2022-12-03T07:23:11.718Z,22.12
2022-12-03T07:25:38.005Z,21.68
2022-12-03T07:28:04.291Z,21.84
2022-12-03T07:30:30.555Z,22.08
2022-12-03T07:32:56.856Z,21.79
2022-12-03T07:35:23.125Z,21.59
2022-12-03T07:37:49.391Z,22.08
2022-12-03T07:40:15.654Z,22.33
2022-12-03T07:42:41.922Z,23.07
2022-12-03T07:45:08.189Z,22.74
2022-12-03T07:47:34.480Z,22.42
2022-12-03T07:50:00.749Z,22.06
2022-12-03T07:52:27.035Z,22.09
2022-12-03T07:54:53.600Z,22.89
2022-12-03T07:57:20.055Z,21.75
2022-12-03T07:59:46.346Z,22.32
2022-12-03T08:02:16.849Z,22.38
2022-12-03T08:04:47.225Z,22.28
2022-12-03T08:07:13.576Z,22.32
2022-12-03T08:09:39.896Z,23.34
2022-12-03T08:12:06.169Z,22.80
2022-12-03T08:14:32.506Z,22.92
2022-12-03T08:16:58.807Z,22.64
2022-12-03T08:19:25.132Z,22.25
2022-12-03T08:21:54.109Z,23.40
2022-12-03T08:24:24.402Z,23.22
2022-12-03T08:26:50.669Z,24.51
2022-12-03T08:29:16.946Z,23.33
2022-12-03T08:31:43.316Z,23.54
2022-12-03T08:34:09.703Z,23.41
2022-12-03T08:36:35.979Z,24.45
2022-12-03T08:39:02.286Z,24.97
2022-12-03T08:41:28.578Z,24.56
2022-12-03T08:43:54.870Z,23.94
2022-12-03T08:46:21.247Z,24.10
2022-12-03T08:48:49.384Z,24.43
2022-12-03T08:51:15.962Z,24.41
2022-12-03T08:53:42.218Z,25.00
2022-12-03T08:56:08.469Z,24.19
2022-12-03T08:58:34.762Z,24.85
2022-12-03T09:01:01.189Z,24.43
2022-12-03T09:03:42.643Z,25.17
2022-12-03T09:06:08.961Z,24.69
2022-12-03T09:08:35.229Z,25.34
2022-12-03T09:11:01.519Z,25.88
2022-12-03T09:13:27.806Z,24.99
2022-12-03T09:15:54.086Z,25.15
2022-12-03T09:18:20.387Z,25.03
2022-12-03T09:20:46.680Z,24.55
2022-12-03T09:23:12.933Z,25.36
2022-12-03T09:25:39.203Z,25.13
2022-12-03T09:28:05.468Z,26.72
2022-12-03T09:30:31.798Z,25.16
2022-12-03T09:32:58.164Z,24.96
2022-12-03T09:35:24.430Z,25.02
2022-12-03T09:37:50.686Z,25.95
2022-12-03T09:40:16.941Z,24.79
2022-12-03T09:42:43.250Z,25.79
2022-12-03T09:45:09.527Z,24.38
2022-12-03T09:47:35.819Z,25.04
2022-12-03T09:50:02.080Z,25.97
2022-12-03T09:52:28.360Z,23.96
2022-12-03T09:54:54.989Z,23.90
2022-12-03T09:57:21.529Z,24.49
2022-12-03T09:59:47.826Z,24.83
2022-12-03T10:02:14.140Z,24.96
2022-12-03T10:04:40.457Z,23.61
2022-12-03T10:07:06.786Z,24.00
2022-12-03T10:09:33.042Z,23.46
2022-12-03T10:11:59.330Z,22.99
2022-12-03T10:14:25.610Z,24.66
2022-12-03T10:16:52.057Z,24.69
2022-12-03T10:19:18.476Z,23.83
2022-12-03T10:21:44.845Z,23.14
2022-12-03T10:24:11.109Z,23.16
2022-12-03T10:26:37.471Z,24.16
2022-12-03T10:29:03.747Z,23.36
2022-12-03T10:31:30.073Z,23.56
2022-12-03T10:33:56.416Z,22.58
2022-12-03T10:36:22.789Z,23.12
2022-12-03T10:38:49.068Z,22.74
2022-12-03T10:41:15.332Z,22.94
2022-12-03T10:43:41.644Z,22.72
2022-12-03T10:46:07.930Z,23.23
2022-12-03T10:48:34.259Z,23.59
2022-12-03T10:51:00.565Z,24.30
2022-12-03T10:53:26.850Z,23.23
2022-12-03T10:55:53.123Z,22.90
2022-12-03T10:58:19.389Z,23.07
2022-12-03T11:00:45.690Z,23.18
2022-12-03T11:03:12.120Z,23.54
2022-12-03T11:05:38.457Z,23.36
2022-12-03T11:08:04.852Z,22.64
2022-12-03T11:10:31.135Z,23.66
2022-12-03T11:12:57.421Z,22.85
2022-12-03T11:15:23.745Z,23.79
2022-12-03T11:17:50.020Z,23.02
2022-12-03T11:20:22.211Z,24.15
2022-12-03T11:22:48.942Z,24.59
2022-12-03T11:25:15.208Z,24.22
2022-12-03T11:27:41.470Z,26.89
2022-12-03T11:30:07.767Z,24.64
2022-12-03T11:32:34.052Z,24.65
2022-12-03T11:35:00.322Z,24.25
2022-12-03T11:37:26.598Z,24.32
2022-12-03T11:39:53.434Z,25.12
2022-12-03T11:42:19.962Z,24.90
2022-12-03T11:44:46.213Z,24.79
2022-12-03T11:47:12.504Z,24.55
2022-12-03T11:49:38.793Z,24.35
2022-12-03T11:52:05.083Z,23.73
2022-12-03T11:54:32.557Z,24.43
2022-12-03T11:56:58.853Z,24.12
2022-12-03T11:59:25.129Z,24.15
2022-12-03T12:01:51.420Z,25.39
2022-12-03T12:04:17.736Z,24.37
2022-12-03T12:06:44.039Z,24.17
2022-12-03T12:09:10.321Z,24.04
2022-12-03T12:11:36.587Z,24.66
2022-12-03T12:14:02.905Z,24.53
2022-12-03T12:16:29.257Z,23.34
2022-12-03T12:18:56.381Z,23.20
2022-12-03T12:21:22.706Z,23.80
2022-12-03T12:23:49.047Z,23.60
2022-12-03T12:26:15.381Z,24.24
2022-12-03T12:28:41.658Z,24.23
2022-12-03T12:31:07.996Z,24.07
2022-12-03T12:33:34.287Z,24.35
2022-12-03T12:36:00.581Z,24.60
2022-12-03T12:38:26.982Z,23.44
2022-12-03T12:40:53.274Z,23.99
2022-12-03T12:43:23.835Z,24.01
2022-12-03T12:45:50.779Z,24.41
2022-12-03T12:48:17.023Z,24.76
2022-12-03T12:50:43.321Z,24.68
2022-12-03T12:53:09.790Z,24.46
2022-12-03T12:55:36.155Z,24.52
2022-12-03T12:58:02.494Z,24.18
2022-12-03T13:00:28.789Z,23.63
2022-12-03T13:02:55.254Z,24.26
2022-12-03T13:05:21.538Z,23.72
2022-12-03T13:07:47.935Z,25.03
2022-12-03T13:10:14.272Z,23.94
2022-12-03T13:12:40.855Z,24.84
2022-12-03T13:15:07.138Z,26.09
2022-12-03T13:17:33.405Z,24.75
2022-12-03T13:20:07.105Z,24.96
2022-12-03T13:22:34.265Z,24.60
2022-12-03T13:25:00.533Z,25.28
2022-12-03T13:27:26.853Z,25.63
2022-12-03T13:29:53.422Z,25.40
2022-12-03T13:32:19.899Z,25.68
2022-12-03T13:34:46.180Z,26.06
2022-12-03T13:37:12.468Z,26.37
2022-12-03T13:39:38.745Z,26.37
2022-12-03T13:42:05.020Z,25.70
2022-12-03T13:44:31.281Z,26.81
2022-12-03T13:46:57.563Z,25.99
2022-12-03T13:49:23.934Z,26.65
2022-12-03T13:51:50.215Z,26.45
2022-12-03T13:54:16.484Z,26.20
2022-12-03T13:56:42.766Z,26.09
2022-12-03T13:59:09.046Z,25.54
2022-12-03T14:01:35.391Z,25.91
2022-12-03T14:04:01.705Z,25.04
2022-12-03T14:06:27.956Z,25.87
2022-12-03T14:08:54.242Z,25.80
2022-12-03T14:11:20.550Z,25.20
2022-12-03T14:13:46.824Z,24.94
2022-12-03T14:16:13.181Z,25.17
2022-12-03T14:18:39.562Z,24.84
2022-12-03T14:21:05.826Z,24.03
2022-12-03T14:23:32.114Z,23.96
2022-12-03T14:25:58.374Z,24.54
2022-12-03T14:28:24.699Z,26.55
2022-12-03T14:30:50.997Z,26.43
2022-12-03T14:33:17.278Z,26.27
2022-12-03T14:35:43.648Z,26.16
2022-12-03T14:38:10.020Z,25.25
2022-12-03T14:40:36.269Z,24.70
2022-12-03T14:43:02.525Z,24.43
2022-12-03T14:45:28.856Z,24.31
2022-12-03T14:47:55.200Z,24.70
2022-12-03T14:50:21.496Z,24.38
2022-12-03T14:52:47.764Z,24.50
2022-12-03T14:55:14.050Z,24.41
2022-12-03T14:57:40.522Z,25.03
2022-12-03T15:00:06.841Z,24.82
2022-12-03T15:02:33.316Z,25.53
2022-12-03T15:04:59.762Z,24.85
2022-12-03T15:07:26.081Z,24.47
2022-12-03T15:09:52.730Z,24.95
2022-12-03T15:12:19.241Z,24.35
2022-12-03T15:14:45.516Z,24.84
2022-12-03T15:17:11.830Z,24.35
2022-12-03T15:19:38.149Z,24.69
2022-12-03T15:22:04.417Z,23.99
2022-12-03T15:24:30.674Z,24.40
2022-12-03T15:26:57.050Z,24.40
2022-12-03T15:29:23.375Z,24.37
2022-12-03T15:31:49.778Z,23.67
2022-12-03T15:34:20.601Z,24.27
2022-12-03T15:36:48.955Z,24.51
2022-12-03T15:39:15.228Z,23.91
2022-12-03T15:41:41.500Z,24.13
2022-12-03T15:44:07.754Z,23.63
2022-12-03T15:46:34.132Z,24.04
2022-12-03T15:49:00.452Z,23.53
2022-12-03T15:51:26.841Z,23.56
2022-12-03T15:53:53.135Z,24.56
2022-12-03T15:56:19.390Z,24.21
2022-12-03T15:58:45.729Z,24.14
2022-12-03T16:01:12.060Z,24.33
2022-12-03T16:03:38.370Z,23.90
2022-12-03T16:06:04.692Z,24.57
2022-12-03T16:08:30.993Z,24.84
2022-12-03T16:10:57.236Z,22.93
2022-12-03T16:13:23.527Z,23.99
2022-12-03T16:15:49.978Z,24.15
2022-12-03T16:18:16.284Z,23.22
2022-12-03T16:20:42.572Z,23.91
2022-12-03T16:23:08.840Z,23.33
2022-12-03T16:25:35.113Z,22.46
2022-12-03T16:28:01.379Z,24.14
2022-12-03T16:30:27.665Z,23.92
2022-12-03T16:32:53.955Z,23.53
2022-12-03T16:35:20.231Z,23.74
2022-12-03T16:37:46.615Z,23.13
2022-12-03T16:40:12.913Z,23.77
2022-12-03T16:42:39.187Z,23.66
2022-12-03T16:45:05.448Z,23.56
2022-12-03T16:47:34.209Z,23.20
2022-12-03T16:50:00.861Z,23.50
2022-12-03T16:52:27.202Z,23.00
2022-12-03T16:54:53.462Z,22.75
2022-12-03T16:57:19.718Z,22.46
2022-12-03T16:59:46.005Z,23.43
2022-12-03T17:02:12.278Z,23.75
2022-12-03T17:04:38.629Z,22.86
2022-12-03T17:07:04.906Z,23.07
2022-12-03T17:09:31.181Z,22.95
2022-12-03T17:11:57.475Z,22.61
2022-12-03T17:14:27.270Z,24.88
2022-12-03T17:16:56.225Z,26.94
2022-12-03T17:19:22.512Z,23.84
2022-12-03T17:21:48.780Z,23.94
2022-12-03T17:24:15.043Z,23.69
2022-12-03T17:26:41.307Z,23.65
2022-12-03T17:29:07.586Z,24.00
2022-12-03T17:31:39.978Z,23.74
2022-12-03T17:34:08.083Z,23.78
2022-12-03T17:36:34.345Z,23.59
2022-12-03T17:39:00.613Z,24.41
2022-12-03T17:41:26.883Z,23.24
2022-12-03T17:43:53.140Z,22.47
2022-12-03T17:46:19.413Z,23.49
2022-12-03T17:48:45.727Z,23.12
2022-12-03T17:51:11.991Z,24.33
2022-12-03T17:53:38.242Z,23.97
2022-12-03T17:56:04.503Z,23.41
2022-12-03T17:58:30.762Z,24.22
2022-12-03T18:01:02.018Z,24.87
2022-12-03T18:03:28.944Z,24.25
2022-12-03T18:05:55.235Z,24.03
2022-12-03T18:08:21.549Z,25.31
2022-12-03T18:10:47.850Z,24.93
2022-12-03T18:13:14.149Z,23.50
2022-12-03T18:15:40.413Z,24.16
2022-12-03T18:18:06.709Z,24.86
2022-12-03T18:20:32.978Z,24.55
2022-12-03T18:22:59.348Z,24.59
2022-12-03T18:25:25.638Z,24.33
2022-12-03T18:27:51.901Z,25.22
2022-12-03T18:30:18.153Z,25.60
2022-12-03T18:32:44.451Z,25.59
2022-12-03T18:35:10.726Z,26.29
2022-12-03T18:37:36.965Z,27.00
2022-12-03T18:40:12.096Z,25.46
2022-12-03T18:42:39.211Z,25.74
2022-12-03T18:45:05.484Z,25.60
2022-12-03T18:47:31.871Z,25.59
2022-12-03T18:49:58.406Z,26.39
2022-12-03T18:52:24.900Z,25.04
2022-12-03T18:54:51.181Z,25.79
2022-12-03T18:57:17.434Z,25.59
2022-12-03T18:59:43.715Z,24.07
2022-12-03T19:02:10.035Z,24.76
2022-12-03T19:04:36.356Z,25.59
2022-12-03T19:07:02.634Z,24.69
2022-12-03T19:09:28.923Z,25.06
2022-12-03T19:11:55.269Z,25.17
2022-12-03T19:14:21.549Z,24.26
2022-12-03T19:16:47.868Z,24.95
2022-12-03T19:19:14.142Z,24.80
2022-12-03T19:21:40.412Z,24.64
2022-12-03T19:26:52.958Z,25.71
2022-12-03T19:29:19.216Z,24.19
2022-12-03T19:31:45.528Z,25.11
2022-12-03T19:34:11.824Z,25.04
2022-12-03T19:36:38.082Z,25.71
2022-12-03T19:39:04.331Z,24.65
2022-12-03T19:41:30.658Z,25.32
2022-12-03T19:43:56.999Z,26.53
2022-12-03T19:46:23.332Z,26.76
2022-12-03T19:48:49.623Z,26.55
2022-12-03T19:51:33.578Z,26.23
2022-12-03T19:54:00.797Z,28.16
2022-12-03T19:56:27.087Z,27.17
2022-12-03T19:58:53.351Z,26.14
2022-12-03T20:01:19.733Z,26.24
2022-12-03T20:03:46.042Z,25.79
2022-12-03T20:06:12.305Z,24.29
2022-12-03T20:08:38.566Z,24.54
2022-12-03T20:11:04.822Z,25.03
2022-12-03T20:13:36.283Z,24.96
2022-12-03T20:16:02.928Z,25.74
2022-12-03T20:18:29.275Z,25.36
2022-12-03T20:20:55.721Z,25.13
2022-12-03T20:23:21.986Z,24.77
2022-12-03T20:25:48.279Z,25.64
2022-12-03T20:28:14.565Z,25.51
2022-12-03T20:30:40.837Z,25.37
2022-12-03T20:33:07.131Z,25.25
2022-12-03T20:35:33.388Z,25.42
2022-12-03T20:37:59.651Z,25.87
2022-12-03T20:40:25.912Z,25.52
2022-12-03T20:42:52.166Z,26.21
2022-12-03T20:45:18.462Z,25.91
2022-12-03T20:47:44.711Z,25.15
2022-12-03T20:50:11.019Z,25.11
2022-12-03T20:52:37.273Z,24.89
2022-12-03T20:55:03.568Z,25.45
2022-12-03T20:57:29.848Z,24.79
2022-12-03T20:59:56.349Z,24.54
2022-12-03T21:02:22.872Z,25.22
2022-12-03T21:04:49.188Z,25.17
2022-12-03T21:07:15.485Z,25.02
2022-12-03T21:09:41.761Z,24.44
2022-12-03T21:12:08.030Z,24.56
2022-12-03T21:14:34.319Z,24.02
2022-12-03T21:17:08.307Z,24.97
2022-12-03T21:19:35.565Z,25.57
2022-12-03T21:22:01.820Z,23.68
2022-12-03T21:24:28.071Z,24.24
2022-12-03T21:26:54.358Z,24.73
2022-12-03T21:29:20.634Z,23.20
2022-12-03T21:31:46.937Z,24.02
2022-12-03T21:34:13.186Z,24.52
2022-12-03T21:36:39.439Z,24.56
2022-12-03T21:39:05.736Z,24.83
2022-12-03T21:41:31.997Z,25.40
2022-12-03T21:43:58.275Z,25.21
2022-12-03T21:47:11.017Z,23.86
2022-12-03T21:49:10.793Z,24.39
2022-12-03T21:51:37.044Z,23.24
2022-12-03T21:54:03.333Z,24.05
2022-12-03T21:56:29.604Z,23.61
2022-12-03T21:58:55.855Z,23.56
2022-12-03T22:01:22.258Z,24.21
2022-12-03T22:03:48.669Z,23.83
2022-12-03T22:06:14.941Z,24.98
2022-12-03T22:08:41.227Z,23.88
2022-12-03T22:11:07.477Z,24.53
2022-12-03T22:13:33.749Z,25.09
2022-12-03T22:16:00.095Z,24.42
2022-12-03T22:18:26.476Z,24.79
2022-12-03T22:20:52.805Z,25.02
2022-12-03T22:23:19.083Z,25.42
2022-12-03T22:25:45.354Z,24.64
2022-12-03T22:28:11.607Z,24.93
2022-12-03T22:30:37.939Z,25.10
2022-12-03T22:33:04.235Z,24.42
2022-12-03T22:35:30.489Z,24.62
2022-12-03T22:37:56.778Z,25.50
2022-12-03T22:40:23.048Z,26.62
2022-12-03T22:42:51.146Z,25.76
2022-12-03T22:45:17.550Z,25.77
2022-12-03T22:47:43.872Z,24.72
2022-12-03T22:50:10.133Z,25.66
2022-12-03T22:52:36.385Z,25.98
2022-12-03T22:55:02.650Z,25.29
2022-12-03T22:57:28.949Z,24.74
2022-12-03T22:59:55.476Z,24.93
2022-12-03T23:02:22.070Z,25.27
2022-12-03T23:04:48.365Z,24.88
2022-12-03T23:07:14.627Z,25.18
2022-12-03T23:09:40.881Z,25.29
2022-12-03T23:12:07.140Z,25.92
2022-12-03T23:14:33.431Z,25.02
2022-12-03T23:16:59.691Z,25.12
2022-12-03T23:19:25.961Z,24.81
2022-12-03T23:21:52.335Z,25.73
2022-12-03T23:24:18.602Z,25.37
2022-12-03T23:26:44.892Z,26.80
2022-12-03T23:29:11.183Z,25.28
2022-12-03T23:31:37.559Z,25.13
2022-12-03T23:34:03.998Z,25.77
2022-12-03T23:36:30.357Z,24.80
2022-12-03T23:38:56.634Z,24.19
2022-12-03T23:41:22.903Z,24.92
2022-12-03T23:43:49.154Z,25.11
2022-12-03T23:46:15.500Z,24.56
2022-12-03T23:48:41.872Z,24.86
2022-12-03T23:51:08.156Z,24.72
2022-12-03T23:53:34.446Z,24.82
2022-12-03T23:56:00.739Z,25.03
2022-12-03T23:58:27.021Z,25.44
